createdAt,value
2022-11-16T00:01:15.196Z,99480.58
2022-11-16T00:03:43.596Z,99475.60
2022-11-16T00:06:12.987Z,99473.29
2022-11-16T00:08:43.321Z,99469.41
2022-11-16T00:11:18.001Z,99468.13
2022-11-16T00:13:45.880Z,99461.52
2022-11-16T00:16:15.968Z,99461.61
2022-11-16T00:18:44.639Z,99463.16
2022-11-16T00:21:12.413Z,99463.11
2022-11-16T00:23:40.354Z,99456.20
2022-11-16T00:26:10.195Z,99450.92
2022-11-16T00:28:38.328Z,99448.78
2022-11-16T00:31:07.315Z,99441.56
2022-11-16T00:33:35.186Z,99439.52
2022-11-16T00:36:05.112Z,99437.61
2022-11-16T00:38:33.516Z,99440.61
2022-11-16T00:41:01.689Z,99433.48
2022-11-16T00:43:30.280Z,99434.85
2022-11-16T00:45:58.236Z,99437.29
2022-11-16T00:48:26.477Z,99440.44
2022-11-16T00:50:54.504Z,99447.04
2022-11-16T00:53:22.733Z,99447.95
2022-11-16T00:55:51.466Z,99444.80
2022-11-16T00:58:20.899Z,99448.61
2022-11-16T01:00:54.581Z,99443.18
2022-11-16T01:03:22.436Z,99442.54
2022-11-16T01:05:50.236Z,99442.95
2022-11-16T01:08:18.045Z,99442.70
2022-11-16T01:10:45.873Z,99441.45
2022-11-16T01:13:13.720Z,99441.48
2022-11-16T01:15:48.439Z,99440.52
2022-11-16T01:18:16.239Z,99436.38
2022-11-16T01:20:43.996Z,99429.56
2022-11-16T01:23:12.470Z,99426.40
2022-11-16T01:25:40.518Z,99423.06
2022-11-16T01:28:08.450Z,99424.75
2022-11-16T01:30:48.603Z,99425.20
2022-11-16T01:33:16.495Z,99427.06
2022-11-16T01:35:44.461Z,99431.82
2022-11-16T01:38:13.634Z,99430.27
2022-11-16T01:40:41.426Z,99425.58
2022-11-16T01:43:28.033Z,99418.27
2022-11-16T01:46:01.961Z,99417.67
2022-11-16T01:48:32.037Z,99413.91
2022-11-16T01:51:00.200Z,99410.77
2022-11-16T01:53:30.385Z,99408.46
2022-11-16T01:55:58.461Z,99402.77
2022-11-16T01:58:39.057Z,99404.02
2022-11-16T02:01:17.734Z,99406.00
2022-11-16T02:03:48.617Z,99400.89
2022-11-16T02:06:28.113Z,99398.27
2022-11-16T02:09:39.070Z,99394.36
2022-11-16T02:12:21.708Z,99397.95
2022-11-16T02:15:31.213Z,99400.02
2022-11-16T02:18:38.310Z,99397.69
2022-11-16T02:21:06.609Z,99391.73
2022-11-16T02:24:02.888Z,99390.86
2022-11-16T02:26:52.620Z,99392.81
2022-11-16T02:29:34.997Z,99390.29
2022-11-16T02:32:12.497Z,99390.78
2022-11-16T02:34:53.297Z,99388.70
2022-11-16T02:37:23.746Z,99382.05
2022-11-16T02:39:56.084Z,99377.41
2022-11-16T02:42:30.409Z,99374.58
2022-11-16T02:44:59.251Z,99373.18
2022-11-16T02:47:32.040Z,99370.64
2022-11-16T02:50:04.763Z,99370.09
2022-11-16T02:52:32.579Z,99367.71
2022-11-16T02:55:00.482Z,99370.77
2022-11-16T02:58:05.929Z,99369.31
2022-11-16T03:00:57.226Z,99367.31
2022-11-16T03:03:37.913Z,99369.32
2022-11-16T03:06:23.500Z,99373.23
2022-11-16T03:09:00.068Z,99370.78
2022-11-16T03:11:50.650Z,99367.84
2022-11-16T03:14:20.833Z,99372.17
2022-11-16T03:16:54.835Z,99376.95
2022-11-16T03:19:35.121Z,99377.59
2022-11-16T03:22:22.152Z,99377.89
2022-11-16T03:24:50.860Z,99376.11
2022-11-16T03:27:45.519Z,99373.08
2022-11-16T03:30:14.445Z,99375.43
2022-11-16T03:32:59.869Z,99375.12
2022-11-16T03:35:31.702Z,99372.98
2022-11-16T03:38:00.014Z,99372.09
2022-11-16T03:40:30.777Z,99376.79
2022-11-16T03:43:01.217Z,99374.66
2022-11-16T03:45:30.735Z,99370.91
2022-11-16T03:48:00.275Z,99369.85
2022-11-16T03:50:28.421Z,99364.42
2022-11-16T03:52:56.836Z,99355.70
2022-11-16T03:55:24.903Z,99355.31
2022-11-16T03:57:53.945Z,99350.98
2022-11-16T04:00:22.401Z,99340.63
2022-11-16T04:02:54.224Z,99339.79
2022-11-16T04:05:42.016Z,99337.05
2022-11-16T04:08:34.867Z,99338.87
2022-11-16T04:11:22.159Z,99341.05
2022-11-16T04:14:09.781Z,99342.77
2022-11-16T04:16:58.212Z,99344.04
2022-11-16T04:19:44.715Z,99345.30
2022-11-16T04:22:36.544Z,99348.88
2022-11-16T04:25:09.933Z,99349.16
2022-11-16T04:27:56.450Z,99349.55
2022-11-16T04:30:25.668Z,99348.15
2022-11-16T04:33:12.495Z,99341.73
2022-11-16T04:35:59.713Z,99336.59
2022-11-16T04:38:27.848Z,99332.80
2022-11-16T04:40:56.498Z,99332.05
2022-11-16T04:43:25.017Z,99330.27
2022-11-16T04:46:26.377Z,99329.70
2022-11-16T04:48:55.798Z,99326.32
2022-11-16T04:51:23.596Z,99325.25
2022-11-16T04:53:51.506Z,99323.09
2022-11-16T04:56:22.221Z,99322.58
2022-11-16T04:58:51.042Z,99330.16
2022-11-16T05:01:39.442Z,99328.14
2022-11-16T05:04:08.121Z,99324.02
2022-11-16T05:06:36.935Z,99317.36
2022-11-16T05:09:05.459Z,99317.42
2022-11-16T05:11:34.028Z,99314.46
2022-11-16T05:14:02.625Z,99314.89
2022-11-16T05:16:31.215Z,99314.85
2022-11-16T05:19:17.816Z,99321.34
2022-11-16T05:21:45.913Z,99320.75
2022-11-16T05:24:32.866Z,99320.53
2022-11-16T05:27:04.207Z,99311.95
2022-11-16T05:29:32.936Z,99314.09
2022-11-16T05:32:01.160Z,99309.38
2022-11-16T05:34:29.375Z,99312.31
2022-11-16T05:36:57.545Z,99306.34
2022-11-16T05:39:25.999Z,99303.88
2022-11-16T05:41:54.870Z,99304.27
2022-11-16T05:44:24.197Z,99300.72
2022-11-16T05:46:52.651Z,99297.46
2022-11-16T05:49:20.808Z,99298.52
2022-11-16T05:51:49.233Z,99301.84
2022-11-16T05:54:24.761Z,99300.87
2022-11-16T05:56:53.862Z,99297.14
2022-11-16T05:59:23.141Z,99293.84
2022-11-16T06:01:53.529Z,99293.69
2022-11-16T06:04:24.210Z,99291.66
2022-11-16T06:06:52.449Z,99289.88
2022-11-16T06:09:20.340Z,99291.20
2022-11-16T06:11:49.250Z,99292.20
2022-11-16T06:14:17.403Z,99289.81
2022-11-16T06:16:45.394Z,99289.41
2022-11-16T06:19:13.424Z,99287.55
2022-11-16T06:21:41.966Z,99285.83
2022-11-16T06:24:14.785Z,99285.30
2022-11-16T06:26:43.217Z,99282.46
2022-11-16T06:29:11.029Z,99282.05
2022-11-16T06:31:38.899Z,99280.48
2022-11-16T06:34:08.397Z,99277.77
2022-11-16T06:36:36.451Z,99272.94
2022-11-16T06:39:04.697Z,99273.02
2022-11-16T06:41:40.197Z,99273.16
2022-11-16T06:44:09.767Z,99269.40
2022-11-16T06:46:38.627Z,99272.48
2022-11-16T06:49:06.553Z,99274.93
2022-11-16T06:51:34.709Z,99280.95
2022-11-16T06:54:02.613Z,99281.18
2022-11-16T06:56:30.541Z,99281.93
2022-11-16T06:58:58.897Z,99285.98
2022-11-16T07:01:27.808Z,99289.39
2022-11-16T07:04:00.545Z,99289.27
2022-11-16T07:06:29.664Z,99284.85
2022-11-16T07:08:57.916Z,99281.73
2022-11-16T07:11:28.671Z,99282.77
2022-11-16T07:13:57.866Z,99285.57
2022-11-16T07:16:26.304Z,99284.88
2022-11-16T07:18:59.269Z,99283.47
2022-11-16T07:21:28.344Z,99289.73
2022-11-16T07:23:56.521Z,99289.49
2022-11-16T07:26:24.899Z,99288.66
2022-11-16T07:29:01.554Z,99284.56
2022-11-16T07:31:29.699Z,99279.45
2022-11-16T07:34:26.981Z,99284.69
2022-11-16T07:37:07.755Z,99280.59
2022-11-16T07:39:44.753Z,99277.46
2022-11-16T07:42:16.429Z,99276.40
2022-11-16T07:45:03.702Z,99283.98
2022-11-16T07:47:37.891Z,99288.02
2022-11-16T07:50:07.708Z,99290.65
2022-11-16T07:52:36.316Z,99294.02
2022-11-16T07:55:11.023Z,99291.44
2022-11-16T07:57:41.380Z,99285.23
2022-11-16T08:00:09.649Z,99281.50
2022-11-16T08:02:46.267Z,99279.56
2022-11-16T08:05:18.724Z,99280.17
2022-11-16T08:07:46.846Z,99280.94
2022-11-16T08:10:15.270Z,99286.68
2022-11-16T08:12:43.235Z,99290.39
2022-11-16T08:15:12.087Z,99293.81
2022-11-16T08:17:39.977Z,99302.90
2022-11-16T08:20:09.700Z,99305.20
2022-11-16T08:22:38.392Z,99307.81
2022-11-16T08:25:07.747Z,99307.96
2022-11-16T08:27:36.234Z,99311.23
2022-11-16T08:30:09.769Z,99310.48
2022-11-16T08:32:38.743Z,99314.53
2022-11-16T08:35:07.397Z,99318.16
2022-11-16T08:37:35.486Z,99320.85
2022-11-16T08:40:03.825Z,99321.51
2022-11-16T08:42:32.558Z,99322.23
2022-11-16T08:45:00.851Z,99316.95
2022-11-16T08:47:29.795Z,99317.15
2022-11-16T08:49:59.742Z,99316.66
2022-11-16T08:52:29.938Z,99324.63
2022-11-16T08:54:58.736Z,99323.70
2022-11-16T08:57:26.625Z,99325.69
2022-11-16T08:59:57.942Z,99324.05
2022-11-16T09:02:25.901Z,99317.42
2022-11-16T09:04:54.588Z,99320.70
2022-11-16T09:07:22.572Z,99320.89
2022-11-16T09:09:50.479Z,99325.70
2022-11-16T09:12:18.308Z,99325.99
2022-11-16T09:14:46.115Z,99333.63
2022-11-16T09:17:16.570Z,99337.05
2022-11-16T09:19:48.103Z,99336.00
2022-11-16T09:22:15.957Z,99330.34
2022-11-16T09:24:43.732Z,99330.35
2022-11-16T09:27:11.561Z,99323.93
2022-11-16T09:29:39.364Z,99323.79
2022-11-16T09:32:07.175Z,99315.15
2022-11-16T09:34:35.586Z,99313.41
2022-11-16T09:37:03.402Z,99313.84
2022-11-16T09:39:32.543Z,99315.67
2022-11-16T09:42:10.939Z,99319.30
2022-11-16T09:44:46.471Z,99318.37
2022-11-16T09:47:17.908Z,99316.50
2022-11-16T09:49:55.711Z,99314.11
2022-11-16T09:52:33.685Z,99312.42
2022-11-16T09:55:06.558Z,99308.19
2022-11-16T09:57:36.406Z,99299.00
2022-11-16T10:00:25.498Z,99287.70
2022-11-16T10:02:59.470Z,99278.16
2022-11-16T10:05:57.500Z,99275.36
2022-11-16T10:08:36.410Z,99271.00
2022-11-16T10:11:35.553Z,99274.64
2022-11-16T10:14:28.217Z,99278.30
2022-11-16T10:17:15.851Z,99280.96
2022-11-16T10:20:08.093Z,99282.55
2022-11-16T10:22:46.318Z,99278.62
2022-11-16T10:25:16.670Z,99272.42
2022-11-16T10:28:08.995Z,99272.67
2022-11-16T10:30:43.395Z,99274.45
2022-11-16T10:33:15.829Z,99267.91
2022-11-16T10:35:47.029Z,99268.16
2022-11-16T10:38:17.545Z,99271.98
2022-11-16T10:40:51.102Z,99270.33
2022-11-16T10:43:27.337Z,99270.03
2022-11-16T10:46:19.702Z,99270.92
2022-11-16T10:48:58.977Z,99268.58
2022-11-16T10:51:26.849Z,99266.58
2022-11-16T10:53:56.003Z,99262.06
2022-11-16T10:56:31.853Z,99252.80
2022-11-16T10:59:00.506Z,99249.40
2022-11-16T11:01:43.731Z,99248.26
2022-11-16T11:04:22.369Z,99244.57
2022-11-16T11:07:22.573Z,99243.50
2022-11-16T11:09:53.836Z,99237.48
2022-11-16T11:12:39.194Z,99233.77
2022-11-16T11:15:13.452Z,99234.48
2022-11-16T11:17:49.009Z,99237.30
2022-11-16T11:20:17.037Z,99229.25
2022-11-16T11:22:58.636Z,99221.66
2022-11-16T11:25:33.568Z,99226.34
2022-11-16T11:28:18.489Z,99225.14
2022-11-16T11:31:25.750Z,99227.80
2022-11-16T11:33:55.963Z,99233.04
2022-11-16T11:36:28.697Z,99232.48
2022-11-16T11:39:05.557Z,99232.40
2022-11-16T11:41:43.983Z,99235.60
2022-11-16T11:44:16.896Z,99230.46
2022-11-16T11:47:50.340Z,99229.37
2022-11-16T11:49:43.145Z,99228.77
2022-11-16T11:52:18.750Z,99227.24
2022-11-16T11:54:47.913Z,99221.69
2022-11-16T11:57:20.740Z,99219.80
2022-11-16T11:59:51.494Z,99216.21
2022-11-16T12:02:34.568Z,99212.75
2022-11-16T12:05:15.456Z,99211.20
2022-11-16T12:07:55.521Z,99208.86
2022-11-16T12:10:46.434Z,99204.11
2022-11-16T12:13:23.301Z,99199.64
2022-11-16T12:16:12.056Z,99196.43
2022-11-16T12:18:48.178Z,99192.77
2022-11-16T12:21:32.187Z,99203.70
2022-11-16T12:24:14.728Z,99204.66
2022-11-16T12:26:48.279Z,99200.63
2022-11-16T12:29:26.957Z,99197.10
2022-11-16T12:32:16.621Z,99200.81
2022-11-16T12:35:08.889Z,99193.46
2022-11-16T12:38:08.720Z,99194.34
2022-11-16T12:40:58.512Z,99188.66
2022-11-16T12:43:44.998Z,99189.50
2022-11-16T12:46:19.549Z,99192.23
2022-11-16T12:49:26.470Z,99192.92
2022-11-16T12:52:10.112Z,99186.30
2022-11-16T12:55:19.232Z,99192.59
2022-11-16T12:57:59.216Z,99189.36
2022-11-16T13:00:28.904Z,99194.68
2022-11-16T13:03:09.574Z,99197.19
2022-11-16T13:06:09.293Z,99191.83
2022-11-16T13:08:40.060Z,99195.95
2022-11-16T13:11:13.763Z,99196.29
2022-11-16T13:13:48.068Z,99189.68
2022-11-16T13:16:19.838Z,99193.34
2022-11-16T13:18:47.624Z,99188.63
2022-11-16T13:21:26.229Z,99189.04
2022-11-16T13:24:00.038Z,99194.73
2022-11-16T13:26:36.200Z,99192.41
2022-11-16T13:29:07.189Z,99201.13
2022-11-16T13:31:39.700Z,99203.36
2022-11-16T13:34:14.898Z,99202.36
2022-11-16T13:36:45.268Z,99210.34
2022-11-16T13:39:22.183Z,99211.25
2022-11-16T13:42:13.549Z,99210.36
2022-11-16T13:44:41.457Z,99209.43
2022-11-16T13:47:23.096Z,99206.44
2022-11-16T13:50:01.744Z,99209.19
2022-11-16T13:53:19.880Z,99207.37
2022-11-16T13:55:33.607Z,99207.94
2022-11-16T13:58:04.597Z,99206.20
2022-11-16T14:00:40.440Z,99206.94
2022-11-16T14:03:20.366Z,99209.19
2022-11-16T14:05:49.571Z,99205.52
2022-11-16T14:08:20.154Z,99204.66
2022-11-16T14:10:50.915Z,99196.26
2022-11-16T14:13:37.402Z,99197.57
2022-11-16T14:16:29.154Z,99192.60
2022-11-16T14:18:59.866Z,99195.17
2022-11-16T14:22:00.153Z,99187.92
2022-11-16T14:24:28.027Z,99181.52
2022-11-16T14:27:30.447Z,99183.95
2022-11-16T14:30:19.535Z,99178.61
2022-11-16T14:32:50.437Z,99174.70
2022-11-16T14:35:39.517Z,99172.87
2022-11-16T14:38:17.047Z,99174.64
2022-11-16T14:40:47.771Z,99182.41
2022-11-16T14:43:22.048Z,99177.99
2022-11-16T14:46:30.147Z,99181.81
2022-11-16T14:48:59.542Z,99183.98
2022-11-16T14:51:32.114Z,99186.88
2022-11-16T14:54:03.347Z,99189.09
2022-11-16T14:56:31.160Z,99186.30
2022-11-16T14:59:01.868Z,99180.79
2022-11-16T15:01:35.140Z,99178.58
2022-11-16T15:04:10.611Z,99176.27
2022-11-16T15:07:02.289Z,99178.17
2022-11-16T15:09:36.433Z,99178.27
2022-11-16T15:12:24.467Z,99177.66
2022-11-16T15:14:53.628Z,99179.60
2022-11-16T15:17:31.887Z,99181.51
2022-11-16T15:20:23.078Z,99179.40
2022-11-16T15:22:53.117Z,99176.92
2022-11-16T15:25:26.973Z,99174.40
2022-11-16T15:27:56.436Z,99172.38
2022-11-16T15:30:33.293Z,99166.74
2022-11-16T15:33:04.152Z,99163.44
2022-11-16T15:35:33.593Z,99167.23
2022-11-16T15:38:22.058Z,99167.74
2022-11-16T15:40:54.977Z,99168.20
2022-11-16T15:43:26.202Z,99166.14
2022-11-16T15:45:54.197Z,99171.26
2022-11-16T15:48:23.612Z,99173.33
2022-11-16T15:51:13.858Z,99175.23
2022-11-16T15:53:43.301Z,99175.02
2022-11-16T15:56:20.669Z,99176.62
2022-11-16T15:58:56.195Z,99177.45
2022-11-16T16:01:25.867Z,99179.65
2022-11-16T16:03:54.862Z,99180.45
2022-11-16T16:06:44.324Z,99177.94
2022-11-16T16:09:24.278Z,99176.35
2022-11-16T16:11:53.317Z,99178.28
2022-11-16T16:14:29.269Z,99180.48
2022-11-16T16:16:58.793Z,99173.77
2022-11-16T16:30:04.428Z,99174.77
2022-11-16T16:32:34.831Z,99174.67
2022-11-16T16:35:05.968Z,99173.70
2022-11-16T16:37:35.997Z,99173.80
2022-11-16T16:40:04.604Z,99169.39
2022-11-16T16:42:32.332Z,99169.29
2022-11-16T16:45:00.604Z,99166.98
2022-11-16T16:47:28.496Z,99169.27
2022-11-16T16:49:56.262Z,99173.98
2022-11-16T16:52:24.086Z,99172.20
2022-11-16T16:54:51.811Z,99175.66
2022-11-16T16:57:19.709Z,99178.70
2022-11-16T16:59:48.405Z,99178.88
2022-11-16T17:02:17.226Z,99182.73
2022-11-16T17:04:46.866Z,99179.98
2022-11-16T17:07:15.977Z,99182.65
2022-11-16T17:09:43.840Z,99183.64
2022-11-16T17:12:12.264Z,99178.99
2022-11-16T17:14:40.076Z,99174.53
2022-11-16T17:17:07.786Z,99175.81
2022-11-16T17:19:35.566Z,99178.30
2022-11-16T17:22:03.713Z,99183.50
2022-11-16T17:24:31.562Z,99182.42
2022-11-16T17:26:59.364Z,99176.64
2022-11-16T17:29:27.224Z,99184.05
2022-11-16T17:31:55.107Z,99183.41
2022-11-16T17:34:23.130Z,99188.48
2022-11-16T17:36:51.031Z,99186.66
2022-11-16T17:39:19.293Z,99182.29
2022-11-16T17:41:47.045Z,99178.11
2022-11-16T17:44:20.185Z,99182.61
2022-11-16T17:46:49.658Z,99184.02
2022-11-16T17:49:17.401Z,99185.91
2022-11-16T17:51:45.698Z,99187.08
2022-11-16T17:54:13.809Z,99189.79
2022-11-16T17:56:50.449Z,99191.54
2022-11-16T17:59:24.989Z,99196.01
2022-11-16T18:02:06.119Z,99194.54
2022-11-16T18:04:34.095Z,99193.05
2022-11-16T18:07:13.688Z,99193.67
2022-11-16T18:09:55.770Z,99195.27
2022-11-16T18:12:38.343Z,99193.27
2022-11-16T18:15:28.579Z,99191.54
2022-11-16T18:21:02.200Z,99195.48
2022-11-16T18:23:30.129Z,99195.83
2022-11-16T18:25:58.413Z,99195.89
2022-11-16T18:28:27.315Z,99189.06
2022-11-16T18:31:02.924Z,99191.69
2022-11-16T18:33:35.363Z,99187.09
2022-11-16T18:36:04.859Z,99183.61
2022-11-16T18:38:32.865Z,99181.31
2022-11-16T18:41:16.887Z,99177.52
2022-11-16T18:44:50.112Z,99177.36
2022-11-16T18:47:21.077Z,99172.86
2022-11-16T18:49:51.491Z,99172.39
2022-11-16T18:52:19.492Z,99177.09
2022-11-16T18:54:47.400Z,99182.42
2022-11-16T18:57:15.156Z,99176.20
2022-11-16T18:59:42.993Z,99170.64
2022-11-16T19:02:13.296Z,99164.36
2022-11-16T19:04:42.704Z,99158.83
2022-11-16T19:07:11.765Z,99151.67
2022-11-16T19:09:39.978Z,99151.59
2022-11-16T19:12:07.811Z,99164.26
2022-11-16T19:14:35.652Z,99175.45
2022-11-16T19:17:05.073Z,99179.84
2022-11-16T19:19:44.529Z,99179.77
2022-11-16T19:22:14.726Z,99179.07
2022-11-16T19:24:42.672Z,99173.77
2022-11-16T19:27:10.784Z,99177.34
2022-11-16T19:29:41.463Z,99184.31
2022-11-16T19:32:09.309Z,99183.27
2022-11-16T19:34:37.115Z,99180.84
2022-11-16T19:53:11.164Z,99172.43
2022-11-16T19:55:39.577Z,99167.34
2022-11-16T19:58:07.511Z,99164.70
2022-11-16T20:00:35.331Z,99167.52
2022-11-16T20:03:03.166Z,99173.89
2022-11-16T20:05:32.581Z,99180.40
2022-11-16T20:08:00.515Z,99185.59
2022-11-16T20:10:29.600Z,99183.05
2022-11-16T20:12:58.284Z,99187.20
2022-11-16T20:15:26.014Z,99187.30
2022-11-16T20:17:53.795Z,99185.13
2022-11-16T20:20:21.510Z,99184.95
2022-11-16T20:22:50.801Z,99186.57
2022-11-16T20:25:18.661Z,99187.44
2022-11-16T20:27:46.793Z,99180.13
2022-11-16T20:30:14.607Z,99181.36
2022-11-16T20:32:42.349Z,99181.29
2022-11-16T20:35:11.819Z,99178.88
2022-11-16T20:37:43.259Z,99182.83
2022-11-16T20:40:11.510Z,99186.84
2022-11-16T20:42:39.299Z,99185.17
2022-11-16T20:45:08.119Z,99184.36
2022-11-16T20:47:35.825Z,99181.02
2022-11-16T20:50:03.990Z,99177.39
2022-11-16T20:52:38.170Z,99178.55
2022-11-16T20:55:09.470Z,99185.88
2022-11-16T20:57:37.257Z,99185.34
2022-11-16T21:00:05.622Z,99185.96
2022-11-16T21:02:33.417Z,99181.89
2022-11-16T21:05:01.166Z,99177.23
2022-11-16T21:07:28.998Z,99176.85
2022-11-16T21:10:15.476Z,99174.07
2022-11-16T21:13:01.804Z,99172.83
2022-11-16T21:15:29.615Z,99177.08
2022-11-16T21:17:57.422Z,99182.05
2022-11-16T21:20:27.823Z,99179.84
2022-11-16T21:22:56.033Z,99188.00
2022-11-16T21:25:23.778Z,99183.92
2022-11-16T21:27:51.587Z,99180.58
2022-11-16T21:30:19.452Z,99179.05
2022-11-16T21:32:47.217Z,99181.44
2022-11-16T21:35:15.077Z,99182.50
2022-11-16T21:37:42.810Z,99181.95
2022-11-16T21:40:11.256Z,99178.20
2022-11-16T21:42:38.977Z,99181.48
2022-11-16T21:45:07.273Z,99183.02
2022-11-16T21:47:35.012Z,99183.23
2022-11-16T21:50:32.206Z,99182.58
2022-11-16T21:52:50.410Z,99179.17
2022-11-16T21:55:18.112Z,99182.77
2022-11-16T21:57:45.844Z,99178.23
2022-11-16T22:00:14.211Z,99180.26
2022-11-16T22:02:41.921Z,99183.01
2022-11-16T22:05:28.481Z,99188.11
2022-11-16T22:07:56.414Z,99189.59
2022-11-16T22:10:24.110Z,99188.77
2022-11-16T22:12:51.808Z,99187.40
2022-11-16T22:15:19.574Z,99187.15
2022-11-16T22:17:47.340Z,99188.09
2022-11-16T22:20:15.366Z,99186.07
2022-11-16T22:22:43.360Z,99186.91
2022-11-16T22:25:11.349Z,99192.41
2022-11-16T22:28:05.677Z,99201.73
2022-11-16T22:30:27.304Z,99200.50
2022-11-16T22:32:55.069Z,99196.09
2022-11-16T22:35:22.880Z,99191.90
2022-11-16T22:37:50.669Z,99191.02
2022-11-16T22:40:18.446Z,99192.58
2022-11-16T22:42:46.136Z,99201.89
2022-11-16T22:45:13.973Z,99202.01
2022-11-16T22:47:41.916Z,99202.66
2022-11-16T22:50:09.808Z,99202.28
2022-11-16T22:52:37.491Z,99201.70
2022-11-16T22:55:05.743Z,99201.83
2022-11-16T22:57:33.454Z,99202.25
2022-11-16T23:00:01.300Z,99201.14
2022-11-16T23:02:29.099Z,99203.72
2022-11-16T23:04:56.844Z,99202.41
2022-11-16T23:07:24.623Z,99197.48
2022-11-16T23:09:52.351Z,99200.65
2022-11-16T23:12:38.716Z,99195.59
2022-11-16T23:15:27.784Z,99189.22
2022-11-16T23:17:55.547Z,99189.23
2022-11-16T23:20:41.955Z,99194.73
2022-11-16T23:23:36.424Z,99190.71
2022-11-16T23:26:30.495Z,99188.55
2022-11-16T23:28:58.281Z,99185.19
2022-11-16T23:31:26.132Z,99185.84
2022-11-16T23:33:53.952Z,99185.26
2022-11-16T23:36:21.689Z,99181.80
2022-11-16T23:38:49.420Z,99179.54
2022-11-16T23:41:35.818Z,99176.38
2022-11-16T23:44:04.136Z,99170.02
2022-11-16T23:46:33.209Z,99166.39
2022-11-16T23:49:00.960Z,99164.21
2022-11-16T23:51:28.662Z,99161.53
2022-11-16T23:53:57.045Z,99165.44
2022-11-16T23:56:24.803Z,99165.70
2022-11-16T23:58:56.269Z,99165.41
